createdAt,value
2018-05-16T00:00:01.633Z,79.60
2018-05-16T00:00:34.900Z,79.80
2018-05-16T00:01:08.932Z,79.90
2018-05-16T00:01:42.197Z,79.90
2018-05-16T00:02:15.484Z,79.90
2018-05-16T00:02:48.753Z,79.70
2018-05-16T00:03:22.012Z,80.10
2018-05-16T00:03:55.271Z,80.00
2018-05-16T00:04:28.537Z,80.00
2018-05-16T00:05:01.821Z,80.10
2018-05-16T00:05:35.081Z,80.10
2018-05-16T00:06:08.352Z,80.00
2018-05-16T00:06:41.624Z,80.00
2018-05-16T00:07:14.896Z,80.10
2018-05-16T00:07:48.161Z,80.20
2018-05-16T00:08:21.412Z,80.20
2018-05-16T00:08:55.442Z,80.20
2018-05-16T00:09:28.705Z,80.20
2018-05-16T00:10:01.968Z,80.40
2018-05-16T00:10:36.020Z,80.30
2018-05-16T00:11:09.288Z,80.20
2018-05-16T00:11:42.551Z,80.10
2018-05-16T00:12:16.600Z,80.40
2018-05-16T00:12:49.854Z,80.40
2018-05-16T00:13:23.117Z,80.40
2018-05-16T00:13:56.375Z,80.70
2018-05-16T00:14:29.642Z,80.50
2018-05-16T00:15:02.916Z,80.70
2018-05-16T00:15:36.184Z,80.60
2018-05-16T00:16:09.452Z,80.50
2018-05-16T00:16:42.712Z,80.90
2018-05-16T00:17:15.992Z,81.00
2018-05-16T00:17:49.368Z,81.00
2018-05-16T00:18:22.618Z,81.10
2018-05-16T00:18:56.637Z,81.60
2018-05-16T00:19:29.913Z,81.60
2018-05-16T00:20:03.180Z,81.60
2018-05-16T00:20:36.453Z,81.20
2018-05-16T00:21:10.472Z,82.10
2018-05-16T00:21:43.740Z,82.00
2018-05-16T00:22:17.020Z,81.80
2018-05-16T00:22:50.285Z,82.30
2018-05-16T00:23:24.319Z,82.70
2018-05-16T00:23:57.584Z,82.60
2018-05-16T00:24:31.633Z,82.80
2018-05-16T00:25:04.906Z,82.70
2018-05-16T00:25:38.164Z,82.90
2018-05-16T00:26:11.443Z,82.60
2018-05-16T00:26:44.704Z,82.70
2018-05-16T00:27:17.972Z,83.10
2018-05-16T00:27:51.256Z,83.30
2018-05-16T00:28:25.286Z,83.20
2018-05-16T00:28:58.543Z,83.20
2018-05-16T00:29:31.809Z,83.50
2018-05-16T00:30:05.841Z,84.00
2018-05-16T00:30:39.099Z,83.80
2018-05-16T00:31:12.370Z,83.80
2018-05-16T00:31:46.404Z,83.80
2018-05-16T00:32:19.676Z,83.80
2018-05-16T00:32:52.933Z,83.90
2018-05-16T00:33:26.210Z,84.20
2018-05-16T00:33:59.480Z,84.20
2018-05-16T00:34:33.517Z,84.40
2018-05-16T00:35:06.779Z,84.40
2018-05-16T00:35:40.064Z,84.60
2018-05-16T00:36:13.321Z,84.70
2018-05-16T00:36:46.604Z,85.00
2018-05-16T00:37:20.662Z,85.40
2018-05-16T00:37:53.913Z,85.30
2018-05-16T00:38:27.740Z,86.50
2018-05-16T00:39:00.971Z,85.50
2018-05-16T00:39:34.255Z,85.50
2018-05-16T00:40:07.536Z,85.50
2018-05-16T00:40:40.792Z,85.50
2018-05-16T00:41:14.060Z,85.70
2018-05-16T00:41:48.101Z,85.70
2018-05-16T00:42:21.360Z,85.80
2018-05-16T00:42:54.631Z,86.00
2018-05-16T00:43:27.892Z,86.80
2018-05-16T00:44:01.160Z,86.30
2018-05-16T00:44:34.419Z,86.30
2018-05-16T00:45:07.689Z,86.40
2018-05-16T00:45:40.972Z,86.90
2018-05-16T00:46:14.248Z,86.50
2018-05-16T00:46:47.760Z,86.60
2018-05-16T00:47:21.040Z,86.70
2018-05-16T00:47:54.320Z,86.80
2018-05-16T00:48:27.597Z,87.10
2018-05-16T00:49:00.875Z,87.10
2018-05-16T00:49:34.136Z,87.30
2018-05-16T00:50:07.408Z,86.80
2018-05-16T00:50:40.681Z,87.00
2018-05-16T00:51:25.872Z,87.60
2018-05-16T00:51:59.224Z,87.20
2018-05-16T00:52:32.505Z,87.50
2018-05-16T00:53:05.760Z,87.50
2018-05-16T00:53:39.791Z,87.70
2018-05-16T00:54:13.052Z,87.70
2018-05-16T00:54:46.315Z,88.10
2018-05-16T00:55:20.347Z,87.80
2018-05-16T00:55:53.600Z,87.80
2018-05-16T00:56:26.877Z,87.80
2018-05-16T00:57:00.153Z,88.10
2018-05-16T00:57:33.451Z,89.00
2018-05-16T00:58:06.721Z,88.10
2018-05-16T00:58:39.975Z,88.00
2018-05-16T00:59:14.162Z,87.90
2018-05-16T00:59:47.444Z,88.30
2018-05-16T01:00:20.708Z,88.60
2018-05-16T01:00:53.972Z,88.80
2018-05-16T01:01:27.260Z,88.40
2018-05-16T01:02:00.525Z,88.40
2018-05-16T01:02:33.802Z,88.50
2018-05-16T01:03:07.085Z,88.80
2018-05-16T01:03:40.352Z,88.60
2018-05-16T01:04:13.604Z,88.80
2018-05-16T01:04:47.648Z,89.10
2018-05-16T01:05:20.921Z,89.20
2018-05-16T01:05:54.192Z,89.40
2018-05-16T01:06:27.460Z,89.60
2018-05-16T01:07:00.728Z,89.30
2018-05-16T01:07:34.758Z,89.20
2018-05-16T01:08:08.044Z,89.20
2018-05-16T01:08:41.311Z,89.00
2018-05-16T01:09:14.837Z,89.40
2018-05-16T01:09:48.089Z,89.20
2018-05-16T01:10:21.341Z,89.30
2018-05-16T01:10:54.612Z,89.40
2018-05-16T01:11:28.661Z,89.50
2018-05-16T01:12:01.936Z,89.50
2018-05-16T01:12:35.229Z,89.80
2018-05-16T01:13:08.492Z,90.00
2018-05-16T01:13:41.758Z,90.00
2018-05-16T01:14:15.024Z,90.00
2018-05-16T01:14:48.293Z,90.00
2018-05-16T01:15:22.332Z,90.20
2018-05-16T01:15:55.593Z,90.20
2018-05-16T01:16:28.858Z,90.30
2018-05-16T01:17:02.129Z,90.30
2018-05-16T01:17:35.392Z,90.10
2018-05-16T01:18:08.669Z,90.30
2018-05-16T01:18:41.944Z,90.40
2018-05-16T01:19:15.220Z,90.70
2018-05-16T01:19:50.767Z,90.40
2018-05-16T01:20:23.979Z,90.50
2018-05-16T01:20:57.239Z,90.40
2018-05-16T01:21:31.268Z,90.50
2018-05-16T01:22:04.541Z,90.50
2018-05-16T01:22:37.796Z,90.50
2018-05-16T01:23:11.072Z,90.70
2018-05-16T01:23:45.095Z,90.60
2018-05-16T01:24:18.370Z,90.60
2018-05-16T01:24:52.388Z,90.60
2018-05-16T01:25:25.654Z,90.60
2018-05-16T01:25:58.912Z,90.60
2018-05-16T01:26:32.168Z,90.60
2018-05-16T01:27:05.430Z,90.60
2018-05-16T01:27:38.688Z,90.80
2018-05-16T01:28:11.960Z,90.70
2018-05-16T01:28:45.233Z,90.70
2018-05-16T01:29:18.487Z,90.80
2018-05-16T01:29:52.522Z,90.90
2018-05-16T01:30:25.776Z,90.90
2018-05-16T01:30:59.049Z,90.90
2018-05-16T01:31:33.073Z,91.10
2018-05-16T01:32:06.350Z,91.10
2018-05-16T01:32:40.348Z,91.10
2018-05-16T01:33:13.622Z,91.10
2018-05-16T01:33:46.888Z,91.00
2018-05-16T01:34:20.145Z,90.90
2018-05-16T01:34:53.401Z,91.00
2018-05-16T01:35:26.656Z,91.10
2018-05-16T01:35:59.913Z,91.30
2018-05-16T01:36:33.179Z,91.20
2018-05-16T01:37:06.444Z,91.40
2018-05-16T01:37:39.706Z,91.30
2018-05-16T01:38:13.744Z,91.30
2018-05-16T01:38:47.000Z,91.40
2018-05-16T01:39:20.500Z,91.30
2018-05-16T01:39:53.781Z,91.20
2018-05-16T01:40:27.611Z,91.30
2018-05-16T01:41:00.901Z,91.40
2018-05-16T01:41:34.199Z,91.40
2018-05-16T01:42:07.457Z,91.40
2018-05-16T01:42:40.719Z,91.30
2018-05-16T01:43:14.000Z,91.50
2018-05-16T01:43:47.264Z,91.50
2018-05-16T01:44:21.301Z,91.40
2018-05-16T01:44:54.576Z,91.40
2018-05-16T01:45:27.863Z,91.40
2018-05-16T01:46:01.151Z,91.40
2018-05-16T01:46:34.407Z,91.50
2018-05-16T01:47:07.672Z,91.50
2018-05-16T01:47:40.932Z,91.60
2018-05-16T01:48:14.979Z,91.40
2018-05-16T01:48:59.988Z,91.40
2018-05-16T01:49:34.020Z,91.60
2018-05-16T01:50:07.274Z,91.60
2018-05-16T01:50:40.535Z,91.50
2018-05-16T01:51:13.804Z,91.50
2018-05-16T01:51:47.078Z,91.70
2018-05-16T01:52:20.343Z,91.80
2018-05-16T01:52:53.614Z,91.80
2018-05-16T01:53:26.895Z,91.80
2018-05-16T01:54:00.161Z,91.90
2018-05-16T01:54:33.413Z,91.80
2018-05-16T01:55:07.441Z,91.90
2018-05-16T01:55:40.711Z,91.90
2018-05-16T01:56:13.972Z,92.00
2018-05-16T01:56:48.001Z,92.00
2018-05-16T01:57:21.257Z,92.00
2018-05-16T01:57:55.281Z,91.90
2018-05-16T01:58:28.561Z,91.80
2018-05-16T01:59:01.820Z,91.90
2018-05-16T01:59:35.093Z,92.00
2018-05-16T02:00:08.404Z,92.00
2018-05-16T02:00:42.405Z,92.10
2018-05-16T02:01:15.743Z,92.00
2018-05-16T02:01:48.992Z,92.00
2018-05-16T02:02:22.460Z,92.00
2018-05-16T02:02:55.732Z,92.00
2018-05-16T02:03:29.019Z,92.00
2018-05-16T02:04:02.277Z,92.10
2018-05-16T02:04:35.537Z,92.20
2018-05-16T02:05:08.802Z,92.10
2018-05-16T02:05:42.100Z,92.20
2018-05-16T02:06:15.362Z,92.30
2018-05-16T02:06:48.621Z,92.30
2018-05-16T02:07:21.905Z,92.20
2018-05-16T02:07:55.175Z,92.40
2018-05-16T02:08:28.431Z,92.40
2018-05-16T02:09:01.735Z,92.40
2018-05-16T02:09:34.977Z,92.40
2018-05-16T02:10:08.246Z,92.30
2018-05-16T02:10:41.514Z,92.30
2018-05-16T02:11:15.553Z,92.40
2018-05-16T02:11:48.817Z,92.80
2018-05-16T02:12:22.084Z,92.30
2018-05-16T02:12:55.469Z,92.30
2018-05-16T02:13:28.752Z,92.50
2018-05-16T02:14:02.013Z,92.70
2018-05-16T02:14:36.065Z,92.40
2018-05-16T02:15:09.402Z,92.40
2018-05-16T02:15:42.668Z,92.40
2018-05-16T02:16:16.693Z,92.70
2018-05-16T02:16:49.968Z,92.70
2018-05-16T02:17:23.234Z,92.80
2018-05-16T02:17:56.511Z,92.70
2018-05-16T02:18:29.764Z,92.80
2018-05-16T02:19:03.048Z,92.80
2018-05-16T02:19:36.312Z,92.90
2018-05-16T02:20:09.596Z,92.80
2018-05-16T02:20:42.873Z,92.70
2018-05-16T02:21:16.140Z,92.80
2018-05-16T02:21:49.398Z,92.60
2018-05-16T02:22:22.730Z,92.70
2018-05-16T02:22:55.990Z,92.80
2018-05-16T02:23:29.249Z,92.80
2018-05-16T02:24:02.527Z,92.90
2018-05-16T02:24:35.794Z,92.80
2018-05-16T02:25:09.063Z,92.80
2018-05-16T02:25:42.325Z,92.80
2018-05-16T02:26:15.609Z,93.00
2018-05-16T02:26:48.882Z,92.90
2018-05-16T02:27:22.149Z,92.90
2018-05-16T02:27:55.521Z,93.00
2018-05-16T02:28:28.781Z,92.90
2018-05-16T02:29:02.062Z,92.70
2018-05-16T02:29:35.324Z,92.70
2018-05-16T02:30:08.585Z,92.90
2018-05-16T02:30:41.852Z,92.80
2018-05-16T02:31:15.114Z,92.80
2018-05-16T02:31:48.420Z,92.90
2018-05-16T02:32:21.690Z,92.60
2018-05-16T02:32:55.716Z,93.00
2018-05-16T02:33:28.977Z,93.00
2018-05-16T02:34:02.254Z,93.50
2018-05-16T02:34:36.286Z,93.10
2018-05-16T02:35:09.542Z,93.10
2018-05-16T02:35:42.796Z,93.00
2018-05-16T02:36:16.064Z,93.10
2018-05-16T02:36:49.336Z,93.10
2018-05-16T02:37:22.623Z,93.10
2018-05-16T02:37:55.856Z,93.00
2018-05-16T02:38:29.131Z,93.20
2018-05-16T02:39:02.403Z,93.30
2018-05-16T02:39:35.660Z,93.20
2018-05-16T02:40:08.913Z,93.40
2018-05-16T02:40:42.169Z,93.30
2018-05-16T02:41:15.437Z,93.20
2018-05-16T02:41:48.702Z,93.20
2018-05-16T02:42:21.961Z,93.30
2018-05-16T02:42:55.710Z,93.10
2018-05-16T02:43:28.924Z,93.00
2018-05-16T02:44:02.210Z,93.00
2018-05-16T02:44:36.238Z,93.20
2018-05-16T02:45:09.492Z,93.20
2018-05-16T02:45:42.752Z,93.40
2018-05-16T02:46:16.788Z,93.30
2018-05-16T02:46:50.053Z,93.30
2018-05-16T02:47:23.308Z,93.30
2018-05-16T02:47:56.569Z,93.20
2018-05-16T02:48:29.853Z,93.10
2018-05-16T02:49:03.121Z,93.20
2018-05-16T02:49:36.397Z,93.20
2018-05-16T02:50:10.424Z,93.30
2018-05-16T02:50:44.449Z,93.60
2018-05-16T02:51:17.718Z,93.20
2018-05-16T02:51:51.753Z,93.40
2018-05-16T02:52:25.008Z,93.30
2018-05-16T02:52:58.267Z,93.40
2018-05-16T02:53:32.304Z,93.50
2018-05-16T02:54:05.577Z,93.50
2018-05-16T02:54:38.850Z,93.40
2018-05-16T02:55:12.119Z,93.40
2018-05-16T02:55:46.144Z,93.40
2018-05-16T02:56:19.404Z,93.40
2018-05-16T02:56:52.660Z,93.30
2018-05-16T02:57:26.686Z,93.40
2018-05-16T02:57:59.976Z,93.40
2018-05-16T02:58:33.233Z,93.20
2018-05-16T02:59:07.266Z,93.40
2018-05-16T02:59:40.532Z,93.40
2018-05-16T03:00:13.832Z,93.30
2018-05-16T03:00:47.072Z,93.30
2018-05-16T03:01:20.327Z,93.40
2018-05-16T03:01:53.648Z,93.40
2018-05-16T03:02:26.872Z,93.40
2018-05-16T03:03:00.154Z,93.50
2018-05-16T03:03:33.696Z,93.40
2018-05-16T03:04:06.958Z,93.30
2018-05-16T03:04:40.227Z,93.50
2018-05-16T03:05:14.355Z,93.30
2018-05-16T03:05:47.536Z,93.30
2018-05-16T03:06:21.046Z,93.40
2018-05-16T03:06:54.317Z,93.50
2018-05-16T03:07:27.581Z,93.30
2018-05-16T03:08:00.864Z,93.50
2018-05-16T03:08:34.124Z,93.30
2018-05-16T03:09:07.384Z,93.40
2018-05-16T03:09:41.416Z,93.50
2018-05-16T03:10:14.700Z,93.50
2018-05-16T03:10:47.953Z,93.50
2018-05-16T03:11:21.259Z,93.50
2018-05-16T03:11:54.523Z,93.40
2018-05-16T03:12:27.794Z,93.40
2018-05-16T03:13:01.815Z,93.60
2018-05-16T03:13:35.076Z,93.60
2018-05-16T03:14:08.336Z,93.60
2018-05-16T03:14:42.376Z,93.50
2018-05-16T03:15:15.629Z,93.90
2018-05-16T03:15:48.913Z,93.60
2018-05-16T03:16:22.953Z,93.60
2018-05-16T03:16:56.272Z,93.50
2018-05-16T03:17:29.528Z,93.50
2018-05-16T03:18:02.811Z,93.40
2018-05-16T03:18:36.073Z,93.50
2018-05-16T03:19:09.333Z,93.50
2018-05-16T03:19:42.628Z,93.50
2018-05-16T03:20:15.895Z,93.50
2018-05-16T03:20:49.166Z,93.60
2018-05-16T03:21:22.416Z,93.60
2018-05-16T03:21:55.671Z,93.50
2018-05-16T03:22:28.935Z,93.60
2018-05-16T03:23:02.209Z,93.70
2018-05-16T03:23:35.469Z,93.60
2018-05-16T03:24:08.717Z,93.50
2018-05-16T03:24:42.126Z,93.50
2018-05-16T03:25:15.373Z,93.50
2018-05-16T03:25:48.629Z,93.60
2018-05-16T03:26:21.948Z,93.70
2018-05-16T03:26:55.967Z,93.60
2018-05-16T03:27:29.240Z,93.60
2018-05-16T03:28:02.516Z,93.50
2018-05-16T03:28:35.770Z,93.60
2018-05-16T03:29:09.048Z,93.50
2018-05-16T03:29:42.316Z,93.50
2018-05-16T03:30:15.637Z,93.50
2018-05-16T03:30:48.897Z,93.50
2018-05-16T03:31:22.157Z,93.50
2018-05-16T03:31:55.425Z,93.50
2018-05-16T03:32:28.684Z,93.40
2018-05-16T03:33:01.939Z,93.50
2018-05-16T03:33:35.204Z,93.50
2018-05-16T03:34:08.517Z,93.40
2018-05-16T03:34:41.784Z,93.60
2018-05-16T03:35:15.048Z,93.50
2018-05-16T03:35:49.076Z,93.50
2018-05-16T03:36:22.339Z,93.50
2018-05-16T03:36:55.615Z,93.50
2018-05-16T03:37:28.890Z,93.50
2018-05-16T03:38:02.904Z,93.40
2018-05-16T03:38:36.173Z,93.40
2018-05-16T03:39:10.227Z,93.40
2018-05-16T03:39:43.482Z,93.40
2018-05-16T03:40:16.752Z,93.40
2018-05-16T03:40:50.008Z,93.40
2018-05-16T03:41:23.288Z,93.50
2018-05-16T03:41:56.552Z,93.50
2018-05-16T03:42:29.816Z,93.50
2018-05-16T03:43:03.073Z,93.50
2018-05-16T03:43:36.333Z,93.60
2018-05-16T03:44:09.589Z,93.50
2018-05-16T03:44:42.848Z,93.50
2018-05-16T03:45:16.974Z,93.40
2018-05-16T03:45:50.257Z,93.50
2018-05-16T03:46:23.512Z,93.40
2018-05-16T03:46:57.549Z,93.70
2018-05-16T03:47:30.813Z,93.70
2018-05-16T03:48:04.084Z,93.50
2018-05-16T03:48:38.096Z,93.60
2018-05-16T03:49:11.361Z,93.60
2018-05-16T03:49:44.628Z,93.50
2018-05-16T03:50:18.669Z,93.60
2018-05-16T03:50:51.943Z,93.60
2018-05-16T03:51:25.203Z,93.50
2018-05-16T03:51:58.539Z,93.60
2018-05-16T03:52:31.744Z,93.60
2018-05-16T03:53:05.780Z,93.70
2018-05-16T03:53:39.048Z,93.70
2018-05-16T03:54:12.322Z,93.70
2018-05-16T03:54:45.580Z,93.70
2018-05-16T03:55:18.852Z,93.70
2018-05-16T03:55:52.109Z,93.80
2018-05-16T03:56:25.440Z,93.60
2018-05-16T03:56:58.695Z,93.60
2018-05-16T03:57:43.925Z,93.70
2018-05-16T03:58:28.964Z,93.70
2018-05-16T03:59:14.063Z,93.50
2018-05-16T03:59:59.208Z,93.70
2018-05-16T04:00:44.215Z,93.70
2018-05-16T04:01:29.208Z,93.70
2018-05-16T04:02:14.368Z,93.80
2018-05-16T04:02:59.355Z,93.70
2018-05-16T04:03:44.397Z,93.80
2018-05-16T04:04:17.665Z,93.70
2018-05-16T04:04:50.921Z,93.80
2018-05-16T04:05:24.202Z,93.90
2018-05-16T04:05:58.749Z,94.00
2018-05-16T04:06:31.989Z,94.00
2018-05-16T04:07:05.236Z,94.00
2018-05-16T04:07:38.515Z,93.90
2018-05-16T04:08:11.764Z,93.90
2018-05-16T04:08:45.044Z,93.90
2018-05-16T04:09:18.315Z,94.00
2018-05-16T04:09:51.573Z,94.00
2018-05-16T04:10:24.923Z,94.00
2018-05-16T04:10:58.196Z,93.90
2018-05-16T04:11:31.465Z,93.90
2018-05-16T04:12:05.488Z,93.90
2018-05-16T04:12:38.745Z,93.90
2018-05-16T04:13:12.000Z,93.90
2018-05-16T04:13:45.273Z,93.80
2018-05-16T04:14:18.540Z,93.70
2018-05-16T04:14:51.795Z,93.70
2018-05-16T04:15:25.083Z,93.80
2018-05-16T04:15:58.353Z,93.80
2018-05-16T04:16:31.620Z,93.80
2018-05-16T04:17:04.884Z,93.70
2018-05-16T04:17:38.916Z,93.80
2018-05-16T04:18:12.181Z,93.80
2018-05-16T04:18:45.432Z,93.80
2018-05-16T04:19:19.475Z,93.70
2018-05-16T04:19:52.727Z,93.70
2018-05-16T04:20:26.785Z,93.80
2018-05-16T04:21:00.062Z,93.80
2018-05-16T04:21:33.326Z,93.80
2018-05-16T04:22:06.585Z,93.80
2018-05-16T04:22:39.849Z,93.80
2018-05-16T04:23:13.117Z,93.80
2018-05-16T04:23:47.144Z,94.00
2018-05-16T04:24:20.394Z,94.00
2018-05-16T04:24:53.679Z,93.90
2018-05-16T04:25:27.716Z,93.90
2018-05-16T04:26:01.008Z,94.30
2018-05-16T04:26:34.869Z,93.90
2018-05-16T04:27:08.139Z,93.90
2018-05-16T04:27:41.405Z,93.80
2018-05-16T04:28:15.442Z,93.90
2018-05-16T04:28:48.733Z,93.90
2018-05-16T04:29:21.986Z,94.20
2018-05-16T04:29:55.255Z,93.70
2018-05-16T04:30:28.544Z,93.80
2018-05-16T04:31:01.800Z,93.80
2018-05-16T04:31:35.068Z,93.70
2018-05-16T04:32:08.320Z,93.80
2018-05-16T04:32:41.665Z,93.90
2018-05-16T04:33:14.866Z,93.90
2018-05-16T04:33:48.117Z,93.90
2018-05-16T04:34:21.389Z,93.90
2018-05-16T04:34:55.424Z,94.00
2018-05-16T04:35:28.773Z,94.00
2018-05-16T04:36:02.001Z,94.00
2018-05-16T04:36:35.280Z,94.00
2018-05-16T04:37:08.543Z,93.90
2018-05-16T04:37:41.800Z,93.80
2018-05-16T04:38:15.069Z,93.90
2018-05-16T04:38:48.339Z,93.90
2018-05-16T04:39:22.380Z,93.90
2018-05-16T04:39:55.640Z,93.90
2018-05-16T04:40:28.925Z,94.00
2018-05-16T04:41:02.189Z,94.00
2018-05-16T04:41:35.457Z,94.00
2018-05-16T04:42:08.718Z,93.80
2018-05-16T04:42:41.977Z,94.00
2018-05-16T04:43:16.017Z,93.90
2018-05-16T04:43:49.309Z,93.90
2018-05-16T04:44:23.325Z,93.90
2018-05-16T04:44:56.584Z,93.90
2018-05-16T04:45:29.848Z,94.00
2018-05-16T04:46:03.912Z,94.20
2018-05-16T04:46:37.259Z,94.20
2018-05-16T04:47:10.879Z,94.10
2018-05-16T04:47:44.172Z,94.00
2018-05-16T04:48:17.436Z,93.80
2018-05-16T04:48:50.709Z,93.80
2018-05-16T04:49:23.968Z,93.90
2018-05-16T04:49:57.229Z,93.90
2018-05-16T04:50:30.547Z,93.90
2018-05-16T04:51:03.822Z,93.80
2018-05-16T04:51:37.085Z,93.90
2018-05-16T04:52:10.356Z,93.90
2018-05-16T04:52:43.648Z,93.80
2018-05-16T04:53:17.640Z,94.10
2018-05-16T04:53:50.908Z,94.10
2018-05-16T04:54:24.184Z,94.00
2018-05-16T04:54:58.195Z,94.10
2018-05-16T04:55:31.454Z,94.10
2018-05-16T04:56:04.768Z,94.20
2018-05-16T04:56:38.029Z,94.20
2018-05-16T04:57:11.296Z,93.90
2018-05-16T04:57:45.333Z,94.40
2018-05-16T04:58:18.608Z,94.40
2018-05-16T04:58:51.880Z,94.20
2018-05-16T04:59:25.145Z,94.20
2018-05-16T04:59:58.404Z,94.30
2018-05-16T05:00:31.689Z,94.20
2018-05-16T05:01:05.050Z,94.20
2018-05-16T05:01:39.000Z,94.20
2018-05-16T05:02:12.287Z,94.20
2018-05-16T05:02:45.537Z,94.20
2018-05-16T05:03:19.557Z,94.20
2018-05-16T05:03:52.818Z,94.10
2018-05-16T05:04:26.089Z,94.00
2018-05-16T05:05:00.185Z,94.00
2018-05-16T05:05:33.590Z,94.00
2018-05-16T05:06:07.614Z,93.90
2018-05-16T05:06:40.871Z,93.90
2018-05-16T05:07:14.142Z,93.90
2018-05-16T05:07:49.013Z,93.80
2018-05-16T05:08:22.300Z,93.70
2018-05-16T05:08:55.654Z,93.60
2018-05-16T05:09:28.849Z,93.70
2018-05-16T05:10:02.113Z,93.70
2018-05-16T05:10:35.373Z,93.70
2018-05-16T05:11:08.654Z,93.70
2018-05-16T05:11:41.921Z,93.80
2018-05-16T05:12:15.172Z,93.70
2018-05-16T05:12:48.445Z,93.90
2018-05-16T05:13:21.704Z,93.70
2018-05-16T05:13:54.966Z,93.70
2018-05-16T05:14:28.227Z,93.70
2018-05-16T05:15:01.486Z,93.70
2018-05-16T05:15:34.744Z,93.70
2018-05-16T05:16:08.048Z,93.60
2018-05-16T05:16:41.296Z,93.70
2018-05-16T05:17:14.561Z,94.20
2018-05-16T05:17:47.893Z,94.10
2018-05-16T05:18:22.047Z,94.30
2018-05-16T05:18:55.179Z,94.30
2018-05-16T05:19:28.567Z,94.30
2018-05-16T05:20:01.819Z,94.20
2018-05-16T05:20:35.844Z,94.30
2018-05-16T05:21:09.120Z,94.30
2018-05-16T05:21:42.397Z,94.30
2018-05-16T05:22:16.420Z,94.20
2018-05-16T05:22:49.684Z,94.20
2018-05-16T05:23:22.950Z,94.20
2018-05-16T05:23:57.049Z,94.20
2018-05-16T05:24:30.249Z,94.20
2018-05-16T05:25:03.510Z,94.20
2018-05-16T05:25:37.533Z,94.30
2018-05-16T05:26:10.804Z,94.30
2018-05-16T05:26:44.076Z,94.30
2018-05-16T05:27:17.350Z,94.30
2018-05-16T05:27:50.625Z,94.10
2018-05-16T05:28:24.665Z,94.20
2018-05-16T05:28:57.941Z,94.10
2018-05-16T05:29:31.208Z,94.10
2018-05-16T05:30:04.472Z,94.10
2018-05-16T05:30:37.731Z,94.10
2018-05-16T05:31:11.775Z,94.10
2018-05-16T05:31:45.040Z,94.10
2018-05-16T05:32:18.314Z,94.10
2018-05-16T05:32:51.580Z,94.10
2018-05-16T05:33:24.861Z,94.00
2018-05-16T05:33:58.888Z,94.00
2018-05-16T05:34:32.156Z,94.00
2018-05-16T05:35:05.416Z,94.00
2018-05-16T05:35:39.463Z,93.80
2018-05-16T05:36:12.737Z,93.80
2018-05-16T05:36:46.772Z,93.90
2018-05-16T05:37:20.036Z,93.90
2018-05-16T05:37:53.308Z,93.80
2018-05-16T05:38:26.570Z,93.60
2018-05-16T05:38:59.833Z,93.70
2018-05-16T05:39:33.096Z,93.70
2018-05-16T05:40:07.115Z,93.60
2018-05-16T05:40:40.380Z,93.60
2018-05-16T05:41:13.660Z,93.60
2018-05-16T05:41:46.921Z,93.50
2018-05-16T05:42:20.952Z,93.90
2018-05-16T05:42:54.217Z,93.90
2018-05-16T05:43:27.551Z,93.70
2018-05-16T05:44:00.767Z,93.80
2018-05-16T05:44:34.042Z,94.10
2018-05-16T05:45:07.313Z,93.60
2018-05-16T05:45:40.589Z,93.70
2018-05-16T05:46:13.882Z,93.70
2018-05-16T05:46:47.921Z,93.90
2018-05-16T05:47:21.181Z,93.90
2018-05-16T05:47:54.446Z,93.70
2018-05-16T05:48:28.481Z,93.70
2018-05-16T05:49:01.740Z,93.70
2018-05-16T05:49:35.107Z,93.70
2018-05-16T05:50:08.363Z,93.60
2018-05-16T05:50:41.632Z,93.70
2018-05-16T05:51:14.968Z,93.70
2018-05-16T05:51:48.233Z,93.80
2018-05-16T05:52:22.254Z,93.50
2018-05-16T05:52:55.517Z,93.50
2018-05-16T05:53:28.773Z,93.50
2018-05-16T05:54:02.038Z,93.60
2018-05-16T05:54:35.304Z,93.50
2018-05-16T05:55:08.636Z,93.40
2018-05-16T05:55:41.896Z,93.30
2018-05-16T05:56:15.175Z,93.30
2018-05-16T05:56:49.195Z,93.30
2018-05-16T05:57:22.477Z,93.30
2018-05-16T05:57:55.736Z,93.40
2018-05-16T05:58:29.773Z,93.50
2018-05-16T05:59:03.036Z,93.50
2018-05-16T05:59:36.293Z,93.40
2018-05-16T06:00:10.428Z,93.80
2018-05-16T06:00:43.588Z,93.80
2018-05-16T06:01:16.845Z,93.70
2018-05-16T06:01:50.888Z,93.70
2018-05-16T06:02:24.141Z,93.60
2018-05-16T06:02:57.399Z,93.50
2018-05-16T06:03:31.429Z,93.70
2018-05-16T06:04:04.702Z,93.60
2018-05-16T06:04:37.967Z,93.80
2018-05-16T06:05:12.001Z,93.60
2018-05-16T06:05:45.261Z,93.60
2018-05-16T06:06:18.533Z,93.80
2018-05-16T06:06:51.804Z,93.70
2018-05-16T06:07:25.085Z,93.70
2018-05-16T06:07:59.116Z,93.60
2018-05-16T06:08:32.383Z,93.50
2018-05-16T06:09:05.664Z,93.70
2018-05-16T06:09:38.947Z,93.70
2018-05-16T06:10:12.735Z,93.60
2018-05-16T06:10:46.016Z,93.50
2018-05-16T06:11:19.284Z,93.70
2018-05-16T06:11:52.568Z,94.10
2018-05-16T06:12:26.610Z,93.70
2018-05-16T06:12:59.948Z,93.70
2018-05-16T06:13:33.977Z,93.70
2018-05-16T06:14:07.229Z,93.70
2018-05-16T06:14:40.501Z,93.70
2018-05-16T06:15:14.525Z,93.80
2018-05-16T06:15:47.799Z,93.50
2018-05-16T06:16:21.045Z,93.80
2018-05-16T06:16:55.084Z,94.00
2018-05-16T06:17:28.339Z,94.00
2018-05-16T06:18:01.599Z,94.20
2018-05-16T06:18:35.622Z,94.30
2018-05-16T06:19:08.885Z,94.20
2018-05-16T06:19:43.015Z,94.00
2018-05-16T06:20:16.199Z,94.10
2018-05-16T06:20:49.498Z,94.40
2018-05-16T06:21:22.724Z,94.10
2018-05-16T06:21:56.787Z,94.30
2018-05-16T06:22:30.081Z,94.30
2018-05-16T06:23:03.352Z,94.60
2018-05-16T06:23:36.603Z,95.20
2018-05-16T06:24:09.857Z,94.90
2018-05-16T06:24:43.143Z,94.60
2018-05-16T06:25:16.396Z,95.10
2018-05-16T06:25:50.467Z,94.50
2018-05-16T06:26:23.731Z,94.50
2018-05-16T06:26:56.987Z,94.90
2018-05-16T06:27:30.276Z,95.10
2018-05-16T06:28:03.536Z,94.70
2018-05-16T06:28:36.792Z,94.60
2018-05-16T06:29:10.072Z,94.80
2018-05-16T06:29:44.100Z,94.60
2018-05-16T06:30:17.373Z,94.60
2018-05-16T06:30:51.256Z,94.30
2018-05-16T06:31:24.486Z,94.10
2018-05-16T06:31:57.745Z,94.60
2018-05-16T06:32:31.019Z,94.90
2018-05-16T06:33:04.287Z,94.50
2018-05-16T06:33:37.549Z,94.70
2018-05-16T06:34:11.580Z,94.30
2018-05-16T06:34:44.852Z,94.30
2018-05-16T06:35:18.120Z,94.00
2018-05-16T06:35:51.382Z,93.90
2018-05-16T06:36:24.676Z,94.80
2018-05-16T06:36:58.716Z,94.40
2018-05-16T06:37:32.000Z,94.40
2018-05-16T06:38:05.280Z,95.60
2018-05-16T06:38:38.541Z,95.40
2018-05-16T06:39:11.879Z,94.70
2018-05-16T06:39:45.100Z,93.90
2018-05-16T06:40:18.373Z,94.40
2018-05-16T06:40:51.649Z,93.90
2018-05-16T06:41:24.920Z,93.40
2018-05-16T06:41:58.207Z,93.70
2018-05-16T06:42:31.488Z,93.80
2018-05-16T06:43:04.748Z,93.50
2018-05-16T06:43:38.018Z,94.10
2018-05-16T06:44:12.041Z,93.60
2018-05-16T06:44:46.089Z,93.90
2018-05-16T06:45:19.421Z,93.80
2018-05-16T06:45:52.750Z,93.90
2018-05-16T06:46:26.709Z,93.60
2018-05-16T06:46:59.987Z,93.60
2018-05-16T06:47:33.256Z,93.20
2018-05-16T06:48:06.516Z,93.90
2018-05-16T06:48:40.539Z,93.30
2018-05-16T06:49:13.819Z,93.40
2018-05-16T06:49:47.071Z,93.30
2018-05-16T06:50:21.102Z,93.30
2018-05-16T06:50:54.372Z,93.30
2018-05-16T06:51:27.647Z,93.50
2018-05-16T06:52:00.982Z,93.20
2018-05-16T06:52:34.262Z,93.00
2018-05-16T06:53:07.522Z,93.10
2018-05-16T06:53:40.805Z,93.00
2018-05-16T06:54:14.051Z,92.90
2018-05-16T06:54:47.321Z,92.80
2018-05-16T06:55:21.353Z,93.10
2018-05-16T06:55:54.603Z,93.10
2018-05-16T06:56:27.895Z,93.20
2018-05-16T06:57:01.899Z,93.10
2018-05-16T06:57:35.180Z,93.10
2018-05-16T06:58:08.450Z,92.90
2018-05-16T06:58:41.708Z,93.20
2018-05-16T06:59:14.976Z,93.30
2018-05-16T06:59:48.249Z,93.20
2018-05-16T07:00:21.505Z,93.20
2018-05-16T07:00:55.569Z,93.10
2018-05-16T07:01:28.823Z,93.10
2018-05-16T07:02:02.864Z,93.10
2018-05-16T07:02:36.135Z,93.10
2018-05-16T07:03:09.389Z,93.20
2018-05-16T07:03:42.653Z,92.90
2018-05-16T07:04:16.701Z,92.80
2018-05-16T07:04:49.960Z,92.70
2018-05-16T07:05:23.227Z,92.40
2018-05-16T07:05:57.252Z,92.40
2018-05-16T07:06:30.518Z,92.40
2018-05-16T07:07:03.780Z,92.70
2018-05-16T07:07:37.821Z,92.00
2018-05-16T07:08:11.084Z,92.00
2018-05-16T07:08:44.347Z,91.90
2018-05-16T07:09:17.611Z,91.60
2018-05-16T07:09:51.645Z,92.20
2018-05-16T07:10:24.898Z,92.10
2018-05-16T07:10:58.932Z,92.10
2018-05-16T07:11:32.956Z,91.90
2018-05-16T07:12:06.228Z,91.80